Time;durP1;ratioP1;P1;durP2;ratioP2;P2;SDS_P1;SDS_P2;PMS_P1;PMS_P2;Temp;Humidity;BMP_temperature;BMP_pressure;BME280_temperature;BME280_humidity;BME280_pressure;Samples;Min_cycle;Max_cycle;Signal;HPM_P1;HPM_P2
2022/11/16 00:01:45;;;;;;;11.77;5.70;;;;;;;;;;5086531;28;20330;-58
2022/11/16 00:04:11;;;;;;;9.80;4.93;;;;;;;;;;5084060;28;20038;-58
2022/11/16 00:06:36;;;;;;;9.98;6.15;;;;;;;;;;5087263;28;20458;-58
2022/11/16 00:11:46;;;;;;;8.18;5.75;;;;;;;;;;5112685;27;20197;-57
2022/11/16 00:14:11;;;;;;;9.35;6.20;;;;;;;;;;5075358;28;20578;-57
2022/11/16 00:16:36;;;;;;;9.60;5.60;;;;;;;;;;5081846;28;20918;-57
2022/11/16 00:19:02;;;;;;;9.57;6.43;;;;;;;;;;5084861;28;20033;-57
2022/11/16 00:21:27;;;;;;;10.02;5.43;;;;;;;;;;5082604;28;20023;-57
2022/11/16 00:23:53;;;;;;;7.30;4.75;;;;;;;;;;5080136;28;20031;-57
2022/11/16 00:26:18;;;;;;;7.20;4.95;;;;;;;;;;5081459;28;20024;-57
2022/11/16 00:28:43;;;;;;;7.22;4.90;;;;;;;;;;5089639;28;20024;-57
2022/11/16 00:31:09;;;;;;;8.70;5.43;;;;;;;;;;5091306;28;20031;-57
2022/11/16 00:33:34;;;;;;;7.30;5.45;;;;;;;;;;5084817;28;20032;-57
2022/11/16 00:35:59;;;;;;;10.30;5.20;;;;;;;;;;5078893;28;20044;-57
2022/11/16 00:38:25;;;;;;;6.78;4.75;;;;;;;;;;5085761;28;20043;-57
2022/11/16 00:40:50;;;;;;;9.88;6.00;;;;;;;;;;5084714;28;20487;-57
2022/11/16 00:43:15;;;;;;;7.05;4.53;;;;;;;;;;5088842;28;20524;-57
2022/11/16 00:45:41;;;;;;;7.82;4.72;;;;;;;;;;5084272;28;20034;-57
2022/11/16 00:48:06;;;;;;;7.05;4.30;;;;;;;;;;5082948;28;20060;-57
2022/11/16 00:50:31;;;;;;;8.00;5.03;;;;;;;;;;5076620;28;20315;-57
2022/11/16 00:52:57;;;;;;;7.82;5.53;;;;;;;;;;5082190;28;20116;-57
2022/11/16 00:55:22;;;;;;;7.53;4.97;;;;;;;;;;5079336;28;20106;-57
2022/11/16 00:57:47;;;;;;;11.15;5.18;;;;;;;;;;5078126;28;20114;-57
2022/11/16 01:00:13;;;;;;;6.28;4.13;;;;;;;;;;5079390;28;20103;-57
2022/11/16 01:02:39;;;;;;;6.47;4.32;;;;;;;;;;5081135;28;20108;-57
2022/11/16 01:05:05;;;;;;;5.18;3.90;;;;;;;;;;5088948;28;20016;-57
2022/11/16 01:07:30;;;;;;;7.20;4.10;;;;;;;;;;5078290;28;20033;-57
2022/11/16 01:09:55;;;;;;;7.07;3.92;;;;;;;;;;5087702;28;20016;-57
2022/11/16 01:12:20;;;;;;;7.10;3.83;;;;;;;;;;5082020;28;20032;-57
2022/11/16 01:14:46;;;;;;;6.05;3.80;;;;;;;;;;5089960;28;20107;-57
2022/11/16 01:17:11;;;;;;;5.18;3.90;;;;;;;;;;5083158;28;20359;-57
2022/11/16 01:19:37;;;;;;;6.07;3.58;;;;;;;;;;5114910;27;20032;-57
2022/11/16 01:22:02;;;;;;;5.60;3.47;;;;;;;;;;5078887;28;20110;-57
2022/11/16 01:24:27;;;;;;;6.80;3.55;;;;;;;;;;5083744;28;20081;-57
2022/11/16 01:26:57;;;;;;;6.80;3.53;;;;;;;;;;5088740;28;20088;-57
2022/11/16 01:29:25;;;;;;;6.95;3.80;;;;;;;;;;5077878;28;20382;-57
2022/11/16 01:31:50;;;;;;;5.15;3.40;;;;;;;;;;5072219;28;20023;-57
2022/11/16 01:34:15;;;;;;;8.25;3.42;;;;;;;;;;5076981;28;20021;-57
2022/11/16 01:36:40;;;;;;;6.45;3.55;;;;;;;;;;5091944;28;20076;-57
2022/11/16 01:39:06;;;;;;;5.90;3.30;;;;;;;;;;5081261;28;20024;-57
2022/11/16 01:41:31;;;;;;;5.38;3.17;;;;;;;;;;5086692;28;20027;-57
2022/11/16 01:44:16;;;;;;;5.88;3.10;;;;;;;;;;5078673;28;20028;-57
2022/11/16 01:46:41;;;;;;;4.65;2.88;;;;;;;;;;5083026;28;20429;-57
2022/11/16 01:49:06;;;;;;;6.03;2.80;;;;;;;;;;5076200;28;20540;-57
2022/11/16 01:51:32;;;;;;;4.03;2.53;;;;;;;;;;5078399;28;20462;-57
2022/11/16 01:53:57;;;;;;;6.22;2.70;;;;;;;;;;5073851;28;20025;-57
2022/11/16 01:56:22;;;;;;;4.90;2.70;;;;;;;;;;5075605;28;20059;-57
2022/11/16 01:58:48;;;;;;;4.57;2.78;;;;;;;;;;5067435;28;20068;-57
2022/11/16 02:01:13;;;;;;;6.30;2.85;;;;;;;;;;5090696;28;20016;-57
2022/11/16 02:03:38;;;;;;;4.47;3.03;;;;;;;;;;5087315;28;20023;-57
2022/11/16 02:06:06;;;;;;;4.28;2.78;;;;;;;;;;5086199;28;20035;-57
2022/11/16 02:11:33;;;;;;;5.03;2.80;;;;;;;;;;5078228;28;20457;-57
2022/11/16 02:13:58;;;;;;;;;;;;;;;;;;5086963;28;20478;-57
2022/11/16 02:16:27;;;;;;;3.38;2.47;;;;;;;;;;5079207;28;20350;-57
2022/11/16 02:19:00;;;;;;;5.38;2.80;;;;;;;;;;5079337;28;20040;-57
2022/11/16 02:21:28;;;;;;;4.60;2.47;;;;;;;;;;5115310;27;20031;-57
2022/11/16 02:24:12;;;;;;;4.47;2.25;;;;;;;;;;5069133;28;20527;-57
2022/11/16 02:26:46;;;;;;;4.78;2.50;;;;;;;;;;5082565;28;20024;-57
2022/11/16 02:29:38;;;;;;;4.18;2.40;;;;;;;;;;5085246;28;20028;-57
2022/11/16 02:32:06;;;;;;;4.20;2.15;;;;;;;;;;5075367;28;20420;-57
2022/11/16 02:34:55;;;;;;;3.95;2.50;;;;;;;;;;5076916;28;20027;-57
2022/11/16 02:37:21;;;;;;;4.47;2.35;;;;;;;;;;5064155;28;20054;-58
2022/11/16 02:39:47;;;;;;;3.72;2.53;;;;;;;;;;5088675;28;20343;-58
2022/11/16 02:42:14;;;;;;;3.45;2.10;;;;;;;;;;5071546;28;20501;-59
2022/11/16 02:44:41;;;;;;;3.78;2.33;;;;;;;;;;5126374;27;20481;-59
2022/11/16 02:47:07;;;;;;;4.85;2.63;;;;;;;;;;5078316;28;20039;-58
2022/11/16 02:49:32;;;;;;;3.40;2.33;;;;;;;;;;5076803;28;20024;-59
2022/11/16 02:51:58;;;;;;;5.22;2.42;;;;;;;;;;5080174;28;20062;-56
2022/11/16 02:54:23;;;;;;;5.60;2.40;;;;;;;;;;5078702;28;20481;-56
2022/11/16 02:56:55;;;;;;;5.15;2.70;;;;;;;;;;5088029;28;20265;-58
2022/11/16 02:59:21;;;;;;;4.55;2.60;;;;;;;;;;5081153;28;20021;-58
2022/11/16 03:01:47;;;;;;;4.07;2.60;;;;;;;;;;5080383;28;20078;-58
2022/11/16 03:04:14;;;;;;;4.20;2.70;;;;;;;;;;5111545;27;20032;-58
2022/11/16 03:06:40;;;;;;;3.90;2.63;;;;;;;;;;5063390;28;20040;-58
2022/11/16 03:09:05;;;;;;;4.82;2.88;;;;;;;;;;5082863;28;20028;-58
2022/11/16 03:14:15;;;;;;;5.10;2.60;;;;;;;;;;5078714;28;20042;-58
2022/11/16 03:16:42;;;;;;;4.40;2.50;;;;;;;;;;5124379;27;20319;-58
2022/11/16 03:19:08;;;;;;;4.07;2.28;;;;;;;;;;5085277;28;20516;-58
2022/11/16 03:21:38;;;;;;;4.10;2.35;;;;;;;;;;5080306;28;20028;-58
2022/11/16 03:24:04;;;;;;;4.63;2.40;;;;;;;;;;5076239;28;20115;-58
2022/11/16 03:26:31;;;;;;;3.78;2.35;;;;;;;;;;5074899;28;20111;-59
2022/11/16 03:28:58;;;;;;;5.75;2.90;;;;;;;;;;5117318;27;20504;-58
2022/11/16 03:31:30;;;;;;;5.45;2.70;;;;;;;;;;5080714;28;20414;-58
2022/11/16 03:34:02;;;;;;;4.43;2.80;;;;;;;;;;5085269;28;20020;-59
2022/11/16 03:36:30;;;;;;;5.10;3.05;;;;;;;;;;5110465;27;20024;-58
2022/11/16 03:38:57;;;;;;;3.90;2.60;;;;;;;;;;5084898;28;20032;-56
2022/11/16 03:41:22;;;;;;;4.40;2.90;;;;;;;;;;5089550;28;20413;-57
2022/11/16 03:43:47;;;;;;;6.18;2.72;;;;;;;;;;5080847;28;20503;-57
2022/11/16 03:46:13;;;;;;;3.92;2.63;;;;;;;;;;5111583;27;20016;-57
2022/11/16 03:48:38;;;;;;;4.28;2.10;;;;;;;;;;5094476;28;20032;-57
2022/11/16 03:51:04;;;;;;;3.55;2.30;;;;;;;;;;5089757;28;20026;-57
2022/11/16 03:53:29;;;;;;;3.30;2.10;;;;;;;;;;5084425;28;20489;-57
2022/11/16 03:55:54;;;;;;;3.03;2.05;;;;;;;;;;5076581;28;20016;-57
2022/11/16 03:58:19;;;;;;;2.72;1.70;;;;;;;;;;5086518;28;20130;-57
2022/11/16 04:00:44;;;;;;;2.95;1.90;;;;;;;;;;5082468;28;20485;-57
2022/11/16 04:03:10;;;;;;;4.18;1.90;;;;;;;;;;5083575;28;20473;-57
2022/11/16 04:24:57;;;;;;;3.22;2.00;;;;;;;;;;5088163;28;20421;-59
2022/11/16 04:30:11;;;;;;;3.40;1.80;;;;;;;;;;5090567;28;20422;-58
2022/11/16 04:38:04;;;;;;;3.17;1.60;;;;;;;;;;5088869;28;20043;-58
2022/11/16 04:40:29;;;;;;;2.40;1.50;;;;;;;;;;5092711;28;20099;-58
2022/11/16 04:42:54;;;;;;;1.77;1.40;;;;;;;;;;5085268;28;20020;-59
2022/11/16 04:48:03;;;;;;;2.65;1.70;;;;;;;;;;5075719;28;20038;-58
2022/11/16 04:50:29;;;;;;;2.42;1.40;;;;;;;;;;5093550;28;20020;-59
2022/11/16 04:52:54;;;;;;;8.70;1.75;;;;;;;;;;5086687;28;20025;-58
2022/11/16 04:55:19;;;;;;;2.90;1.55;;;;;;;;;;5077399;28;20494;-58
2022/11/16 04:57:44;;;;;;;4.22;1.73;;;;;;;;;;5087135;28;20377;-58
2022/11/16 05:00:10;;;;;;;2.28;1.52;;;;;;;;;;5072609;28;20021;-58
2022/11/16 05:02:35;;;;;;;2.30;1.42;;;;;;;;;;5083648;28;20024;-58
2022/11/16 05:05:00;;;;;;;2.60;1.70;;;;;;;;;;5081603;28;20031;-58
2022/11/16 05:07:25;;;;;;;3.60;1.48;;;;;;;;;;5075698;28;20027;-58
2022/11/16 05:09:51;;;;;;;3.13;1.55;;;;;;;;;;5080471;28;20027;-58
2022/11/16 05:12:16;;;;;;;1.60;1.27;;;;;;;;;;5079498;28;20078;-58
2022/11/16 05:14:41;;;;;;;4.28;1.67;;;;;;;;;;5082220;28;20092;-59
2022/11/16 05:17:07;;;;;;;2.03;1.60;;;;;;;;;;5079605;28;20028;-58
2022/11/16 05:22:16;;;;;;;2.13;1.60;;;;;;;;;;5075059;28;20024;-59
2022/11/16 05:24:41;;;;;;;3.42;1.42;;;;;;;;;;5118396;27;20031;-57
2022/11/16 05:27:07;;;;;;;3.55;1.70;;;;;;;;;;5073155;28;20107;-59
2022/11/16 05:29:33;;;;;;;4.10;1.67;;;;;;;;;;5083397;28;20434;-58
2022/11/16 05:31:58;;;;;;;2.95;1.70;;;;;;;;;;5083335;28;20679;-57
2022/11/16 05:34:23;;;;;;;4.15;2.00;;;;;;;;;;5076930;28;20020;-58
2022/11/16 05:36:49;;;;;;;3.45;1.52;;;;;;;;;;5078903;28;20268;-59
2022/11/16 05:39:14;;;;;;;2.90;1.80;;;;;;;;;;5084585;28;20032;-58
2022/11/16 05:41:39;;;;;;;2.85;1.98;;;;;;;;;;5073316;28;20093;-58
2022/11/16 05:44:04;;;;;;;4.38;2.10;;;;;;;;;;5082755;28;20028;-58
2022/11/16 05:46:30;;;;;;;4.05;1.90;;;;;;;;;;5078037;28;20032;-58
2022/11/16 05:48:55;;;;;;;5.05;1.90;;;;;;;;;;5086674;28;20035;-58
2022/11/16 05:51:20;;;;;;;3.88;1.90;;;;;;;;;;5078566;28;20038;-59
2022/11/16 05:53:48;;;;;;;6.82;2.42;;;;;;;;;;5075043;28;20173;-58
2022/11/16 05:56:13;;;;;;;4.55;2.00;;;;;;;;;;5080528;28;20103;-59
2022/11/16 05:58:39;;;;;;;7.25;2.28;;;;;;;;;;5078120;28;20119;-59
2022/11/16 06:01:04;;;;;;;4.93;2.20;;;;;;;;;;5079572;28;20048;-58
2022/11/16 06:03:29;;;;;;;7.20;2.10;;;;;;;;;;5080928;28;20109;-58
2022/11/16 06:05:55;;;;;;;8.35;2.40;;;;;;;;;;5072710;28;20072;-58
2022/11/16 06:08:20;;;;;;;8.10;2.15;;;;;;;;;;5077328;28;20128;-59
2022/11/16 06:10:45;;;;;;;8.60;2.58;;;;;;;;;;5086980;28;20104;-59
2022/11/16 06:13:10;;;;;;;6.88;1.95;;;;;;;;;;5080413;28;20183;-59
2022/11/16 06:15:37;;;;;;;8.02;2.35;;;;;;;;;;5076754;28;20056;-59
2022/11/16 06:18:02;;;;;;;10.35;2.25;;;;;;;;;;5079700;28;20423;-59
2022/11/16 06:20:27;;;;;;;5.90;2.05;;;;;;;;;;5080291;28;20135;-59
2022/11/16 06:22:52;;;;;;;8.20;2.10;;;;;;;;;;5084502;28;20510;-59
2022/11/16 06:25:17;;;;;;;10.40;2.80;;;;;;;;;;5073167;28;20540;-59
2022/11/16 06:27:43;;;;;;;8.98;2.08;;;;;;;;;;5079106;28;20474;-59
2022/11/16 06:30:08;;;;;;;10.07;2.35;;;;;;;;;;5074150;28;20485;-57
2022/11/16 06:32:33;;;;;;;6.25;1.80;;;;;;;;;;5076091;28;20020;-57
2022/11/16 06:34:58;;;;;;;7.20;1.80;;;;;;;;;;5078725;28;20024;-57
2022/11/16 06:37:24;;;;;;;5.82;1.80;;;;;;;;;;5074852;28;20023;-57
2022/11/16 06:39:49;;;;;;;6.72;2.10;;;;;;;;;;5091342;28;20375;-57
2022/11/16 06:42:14;;;;;;;10.20;2.00;;;;;;;;;;5078098;28;20036;-57
2022/11/16 06:44:39;;;;;;;8.07;1.65;;;;;;;;;;5090113;28;20099;-57
2022/11/16 06:47:05;;;;;;;10.45;2.40;;;;;;;;;;5084799;28;20027;-57
2022/11/16 06:49:30;;;;;;;8.02;2.25;;;;;;;;;;5074654;28;20086;-57
2022/11/16 06:51:55;;;;;;;17.52;2.08;;;;;;;;;;5086134;28;20027;-57
2022/11/16 06:54:21;;;;;;;3.50;1.85;;;;;;;;;;5074581;28;20429;-58
2022/11/16 06:56:46;;;;;;;3.90;1.77;;;;;;;;;;5069659;28;20035;-57
2022/11/16 06:59:11;;;;;;;6.13;1.98;;;;;;;;;;5081374;28;20039;-57
2022/11/16 07:01:36;;;;;;;8.68;1.92;;;;;;;;;;5078361;28;20856;-57
2022/11/16 07:04:02;;;;;;;9.38;2.13;;;;;;;;;;5072137;28;20016;-57
2022/11/16 07:06:27;;;;;;;9.05;1.90;;;;;;;;;;5069304;28;20512;-57
2022/11/16 07:08:52;;;;;;;9.35;2.33;;;;;;;;;;5078261;28;20031;-57
2022/11/16 07:11:19;;;;;;;5.93;1.88;;;;;;;;;;5073035;28;20018;-57
2022/11/16 07:13:44;;;;;;;5.13;1.70;;;;;;;;;;5076529;28;20024;-57
2022/11/16 07:16:09;;;;;;;13.77;2.15;;;;;;;;;;5082715;28;20351;-57
2022/11/16 07:18:35;;;;;;;10.07;2.40;;;;;;;;;;5080381;28;20099;-57
2022/11/16 07:21:04;;;;;;;10.52;2.10;;;;;;;;;;5075007;28;20117;-57
2022/11/16 07:23:29;;;;;;;12.60;2.78;;;;;;;;;;5074430;28;20027;-57
2022/11/16 07:25:58;;;;;;;10.57;2.70;;;;;;;;;;5075977;28;20036;-57
2022/11/16 07:28:23;;;;;;;6.95;2.10;;;;;;;;;;5070761;28;20035;-57
2022/11/16 07:30:48;;;;;;;8.98;2.35;;;;;;;;;;5075920;28;20816;-57
2022/11/16 07:33:14;;;;;;;6.93;2.03;;;;;;;;;;5065902;28;20023;-57
2022/11/16 07:35:39;;;;;;;9.05;2.15;;;;;;;;;;5072744;28;20055;-57
2022/11/16 07:38:07;;;;;;;10.95;2.22;;;;;;;;;;5072500;28;20036;-57
2022/11/16 07:40:32;;;;;;;11.13;2.50;;;;;;;;;;5094864;28;20024;-57
2022/11/16 07:42:57;;;;;;;8.43;2.13;;;;;;;;;;5080304;28;20035;-57
2022/11/16 07:45:23;;;;;;;11.48;3.40;;;;;;;;;;5085857;28;20012;-57
2022/11/16 07:47:51;;;;;;;10.38;2.20;;;;;;;;;;5085125;28;20370;-57
2022/11/16 07:50:16;;;;;;;9.77;2.45;;;;;;;;;;5084255;28;20020;-58
2022/11/16 07:52:45;;;;;;;10.52;2.78;;;;;;;;;;5078486;28;20043;-57
2022/11/16 07:55:10;;;;;;;10.82;2.55;;;;;;;;;;5082556;28;20485;-58
2022/11/16 07:57:35;;;;;;;12.88;2.42;;;;;;;;;;5077503;28;20139;-57
2022/11/16 08:00:01;;;;;;;9.32;1.77;;;;;;;;;;5080236;28;20047;-58
2022/11/16 08:02:26;;;;;;;9.25;2.28;;;;;;;;;;5085831;28;20309;-57
2022/11/16 08:04:51;;;;;;;8.35;2.05;;;;;;;;;;5084889;28;20322;-57
2022/11/16 08:07:17;;;;;;;13.65;2.38;;;;;;;;;;5077715;28;20052;-57
2022/11/16 08:09:43;;;;;;;13.55;2.53;;;;;;;;;;5080809;28;20038;-57
2022/11/16 08:12:08;;;;;;;10.25;2.00;;;;;;;;;;5079860;28;20020;-57
2022/11/16 08:14:33;;;;;;;5.70;2.05;;;;;;;;;;5086932;28;20065;-57
2022/11/16 08:16:58;;;;;;;13.13;2.35;;;;;;;;;;5088062;28;20360;-57
2022/11/16 08:19:24;;;;;;;6.30;2.25;;;;;;;;;;5088535;28;20036;-57
2022/11/16 08:21:49;;;;;;;10.60;2.20;;;;;;;;;;5094071;28;20024;-57
2022/11/16 08:24:15;;;;;;;8.18;2.38;;;;;;;;;;5088844;28;20099;-57
2022/11/16 08:26:40;;;;;;;8.98;2.28;;;;;;;;;;5073983;28;20074;-57
2022/11/16 08:29:05;;;;;;;10.90;2.15;;;;;;;;;;5072344;28;20191;-57
2022/11/16 08:31:30;;;;;;;11.40;2.22;;;;;;;;;;5079863;28;20016;-57
2022/11/16 08:33:57;;;;;;;9.50;2.33;;;;;;;;;;5077524;28;20031;-57
2022/11/16 08:36:23;;;;;;;15.20;2.88;;;;;;;;;;5075703;28;20067;-57
2022/11/16 08:38:48;;;;;;;10.57;2.33;;;;;;;;;;5082258;28;20577;-57
2022/11/16 08:41:14;;;;;;;10.38;2.17;;;;;;;;;;5072784;28;20021;-57
2022/11/16 08:43:39;;;;;;;8.32;2.22;;;;;;;;;;5079659;28;20107;-58
2022/11/16 08:46:05;;;;;;;15.02;2.47;;;;;;;;;;5081077;28;20455;-57
2022/11/16 08:48:30;;;;;;;9.45;2.88;;;;;;;;;;5085732;28;20024;-57
2022/11/16 08:51:00;;;;;;;8.27;2.22;;;;;;;;;;5094109;28;20008;-57
2022/11/16 08:53:26;;;;;;;11.05;2.38;;;;;;;;;;5075868;28;20166;-57
2022/11/16 08:55:51;;;;;;;11.98;2.50;;;;;;;;;;5071549;28;20106;-58
2022/11/16 08:58:16;;;;;;;7.65;2.22;;;;;;;;;;5073396;28;20136;-57
2022/11/16 09:00:41;;;;;;;10.30;3.00;;;;;;;;;;5089853;28;20040;-57
2022/11/16 09:03:06;;;;;;;6.68;2.35;;;;;;;;;;5080197;28;20079;-58
2022/11/16 09:05:32;;;;;;;15.80;2.85;;;;;;;;;;5083647;28;20063;-57
2022/11/16 09:07:57;;;;;;;12.07;2.58;;;;;;;;;;5090709;28;20083;-57
2022/11/16 09:10:24;;;;;;;10.13;2.20;;;;;;;;;;5083994;28;20032;-57
2022/11/16 09:12:50;;;;;;;12.05;2.75;;;;;;;;;;5081575;27;20238;-57
2022/11/16 09:15:15;;;;;;;11.50;2.95;;;;;;;;;;5089646;28;20354;-57
2022/11/16 09:17:40;;;;;;;15.57;2.40;;;;;;;;;;5083849;28;20461;-57
2022/11/16 09:20:06;;;;;;;13.98;2.30;;;;;;;;;;5081537;28;20043;-58
2022/11/16 09:22:31;;;;;;;10.50;2.80;;;;;;;;;;5086820;28;20024;-57
2022/11/16 09:24:56;;;;;;;8.13;2.38;;;;;;;;;;5080397;28;20021;-57
2022/11/16 09:27:22;;;;;;;10.40;1.98;;;;;;;;;;5118654;27;20568;-58
2022/11/16 09:29:47;;;;;;;10.77;2.38;;;;;;;;;;5077443;28;20537;-57
2022/11/16 09:32:12;;;;;;;9.35;2.83;;;;;;;;;;5078804;28;21338;-57
2022/11/16 09:34:37;;;;;;;11.63;2.67;;;;;;;;;;5081700;28;20035;-57
2022/11/16 09:37:03;;;;;;;13.00;2.35;;;;;;;;;;5080426;28;20103;-57
2022/11/16 09:39:31;;;;;;;10.02;2.20;;;;;;;;;;5078745;28;20518;-57
2022/11/16 09:42:02;;;;;;;11.65;2.20;;;;;;;;;;5079333;28;20407;-57
2022/11/16 09:44:45;;;;;;;10.95;2.63;;;;;;;;;;5076676;28;20461;-57
2022/11/16 09:47:15;;;;;;;14.27;2.75;;;;;;;;;;5079944;28;20056;-57
2022/11/16 09:49:41;;;;;;;12.35;2.22;;;;;;;;;;5078522;28;20085;-57
2022/11/16 09:52:12;;;;;;;9.13;2.45;;;;;;;;;;5074340;28;20024;-57
2022/11/16 09:54:39;;;;;;;12.05;2.40;;;;;;;;;;5085828;28;20039;-57
2022/11/16 09:57:05;;;;;;;11.57;2.50;;;;;;;;;;5088483;28;20127;-57
2022/11/16 09:59:31;;;;;;;17.92;2.63;;;;;;;;;;5075584;28;20386;-57
2022/11/16 10:02:16;;;;;;;8.85;2.20;;;;;;;;;;5074216;28;20016;-57
2022/11/16 10:04:46;;;;;;;15.77;2.08;;;;;;;;;;5077525;28;20077;-57
2022/11/16 10:07:14;;;;;;;7.78;1.80;;;;;;;;;;5104722;27;20121;-57
2022/11/16 10:09:40;;;;;;;9.10;2.28;;;;;;;;;;5084376;28;20521;-57
2022/11/16 10:12:24;;;;;;;11.73;2.05;;;;;;;;;;5081678;28;20031;-57
2022/11/16 10:15:00;;;;;;;13.18;2.05;;;;;;;;;;5072729;28;20028;-57
2022/11/16 10:17:47;;;;;;;13.60;3.58;;;;;;;;;;5074542;28;20130;-57
2022/11/16 10:20:18;;;;;;;6.60;1.65;;;;;;;;;;5114321;27;20408;-57
2022/11/16 10:23:19;;;;;;;8.13;2.50;;;;;;;;;;5081387;28;20028;-57
2022/11/16 10:25:44;;;;;;;9.75;2.15;;;;;;;;;;5056982;28;20034;-57
2022/11/16 10:28:15;;;;;;;11.95;2.42;;;;;;;;;;5069117;28;20386;-57
2022/11/16 10:30:47;;;;;;;12.70;2.25;;;;;;;;;;5076619;28;20708;-57
2022/11/16 10:33:14;;;;;;;17.40;2.53;;;;;;;;;;5078492;28;20033;-57
2022/11/16 10:35:55;;;;;;;13.20;2.58;;;;;;;;;;5116199;27;20020;-57
2022/11/16 10:38:26;;;;;;;9.85;2.40;;;;;;;;;;5080395;28;20055;-57
2022/11/16 10:40:52;;;;;;;14.10;2.65;;;;;;;;;;5081261;28;20478;-57
2022/11/16 10:43:24;;;;;;;15.13;2.30;;;;;;;;;;5073528;28;20033;-57
2022/11/16 10:45:58;;;;;;;12.38;1.90;;;;;;;;;;5073730;28;20015;-57
2022/11/16 10:48:23;;;;;;;9.55;1.75;;;;;;;;;;5078598;28;20469;-57
2022/11/16 10:50:49;;;;;;;12.27;2.33;;;;;;;;;;5086208;28;20016;-57
2022/11/16 10:53:15;;;;;;;10.18;2.13;;;;;;;;;;5118063;27;20035;-57
2022/11/16 10:55:40;;;;;;;11.13;2.22;;;;;;;;;;5110130;27;20020;-57
2022/11/16 10:58:06;;;;;;;12.05;2.40;;;;;;;;;;5077275;28;20027;-57
2022/11/16 11:00:38;;;;;;;7.35;2.08;;;;;;;;;;5068654;28;20024;-57
2022/11/16 11:03:04;;;;;;;15.55;2.22;;;;;;;;;;5083529;28;20039;-57
2022/11/16 11:05:29;;;;;;;9.32;2.20;;;;;;;;;;5069849;28;20103;-57
2022/11/16 11:08:02;;;;;;;10.23;1.80;;;;;;;;;;5074388;28;20056;-57
2022/11/16 11:10:31;;;;;;;12.05;2.42;;;;;;;;;;5082732;28;20029;-57
2022/11/16 11:13:05;;;;;;;7.82;1.88;;;;;;;;;;5076623;28;20012;-57
2022/11/16 11:15:30;;;;;;;10.98;2.45;;;;;;;;;;5078776;28;20128;-57
2022/11/16 11:18:11;;;;;;;7.90;1.80;;;;;;;;;;5083628;28;20541;-57
2022/11/16 11:20:37;;;;;;;14.90;2.10;;;;;;;;;;5087132;28;20035;-57
2022/11/16 11:23:03;;;;;;;9.07;2.20;;;;;;;;;;5080577;28;20115;-57
2022/11/16 11:25:35;;;;;;;18.33;2.28;;;;;;;;;;5081640;28;20402;-58
2022/11/16 11:28:19;;;;;;;5.28;1.83;;;;;;;;;;5090456;28;20021;-58
2022/11/16 11:30:55;;;;;;;7.68;1.80;;;;;;;;;;5085639;28;20481;-57
2022/11/16 11:33:22;;;;;;;8.80;1.90;;;;;;;;;;5079999;28;20331;-57
2022/11/16 11:35:55;;;;;;;8.45;1.80;;;;;;;;;;5076440;28;20039;-57
2022/11/16 11:38:20;;;;;;;8.38;1.90;;;;;;;;;;5075600;28;20043;-57
2022/11/16 11:40:53;;;;;;;13.18;2.40;;;;;;;;;;5084167;27;20474;-57
2022/11/16 11:43:20;;;;;;;13.05;2.47;;;;;;;;;;5072710;28;20028;-57
2022/11/16 11:45:48;;;;;;;8.00;2.10;;;;;;;;;;5071379;28;20055;-57
2022/11/16 11:48:20;;;;;;;10.88;2.13;;;;;;;;;;5073278;28;20556;-57
2022/11/16 11:50:54;;;;;;;8.45;2.28;;;;;;;;;;5078014;28;20437;-57
2022/11/16 11:53:38;;;;;;;13.43;2.15;;;;;;;;;;5079496;28;20040;-57
2022/11/16 11:56:03;;;;;;;12.43;2.08;;;;;;;;;;5079958;28;20490;-57
2022/11/16 11:58:30;;;;;;;13.65;2.38;;;;;;;;;;5079670;28;20038;-58
2022/11/16 12:01:21;;;;;;;14.45;2.13;;;;;;;;;;5083591;28;20023;-57
2022/11/16 12:04:13;;;;;;;5.88;1.77;;;;;;;;;;5073285;28;20036;-57
2022/11/16 12:06:52;;;;;;;11.68;2.42;;;;;;;;;;5072848;28;20040;-57
2022/11/16 12:09:17;;;;;;;11.07;2.22;;;;;;;;;;5082284;28;20064;-58
2022/11/16 12:11:43;;;;;;;8.82;2.03;;;;;;;;;;5069812;28;20144;-57
2022/11/16 12:14:34;;;;;;;8.98;1.90;;;;;;;;;;5082235;28;20708;-57
2022/11/16 12:16:59;;;;;;;7.93;1.85;;;;;;;;;;5066316;28;20433;-57
2022/11/16 12:19:25;;;;;;;10.32;2.10;;;;;;;;;;5071230;28;20098;-57
2022/11/16 12:21:59;;;;;;;9.25;1.90;;;;;;;;;;5091930;28;20496;-57
2022/11/16 12:24:33;;;;;;;8.20;2.10;;;;;;;;;;5081680;28;20020;-57
2022/11/16 12:27:02;;;;;;;9.85;2.17;;;;;;;;;;5073277;28;20093;-57
2022/11/16 12:29:45;;;;;;;9.07;2.08;;;;;;;;;;5084493;28;20028;-57
2022/11/16 12:32:20;;;;;;;15.57;3.42;;;;;;;;;;5087225;28;20051;-57
2022/11/16 12:34:52;;;;;;;7.65;2.10;;;;;;;;;;5103868;27;20081;-57
2022/11/16 12:37:26;;;;;;;9.48;2.45;;;;;;;;;;5082302;28;20205;-57
2022/11/16 12:39:51;;;;;;;10.38;2.25;;;;;;;;;;5080765;28;20077;-57
2022/11/16 12:42:20;;;;;;;8.50;1.85;;;;;;;;;;5076959;28;20028;-57
2022/11/16 12:44:45;;;;;;;8.70;1.90;;;;;;;;;;5108413;27;20166;-58
2022/11/16 12:47:13;;;;;;;10.25;2.63;;;;;;;;;;5079807;28;20337;-57
2022/11/16 12:49:57;;;;;;;8.50;2.00;;;;;;;;;;5086055;28;20023;-57
2022/11/16 12:52:22;;;;;;;6.95;2.10;;;;;;;;;;5079016;28;20025;-57
2022/11/16 12:54:48;;;;;;;10.63;2.80;;;;;;;;;;5083128;28;20085;-57
2022/11/16 12:57:13;;;;;;;6.35;2.13;;;;;;;;;;5083264;28;20048;-57
2022/11/16 13:00:17;;;;;;;9.85;2.17;;;;;;;;;;5082089;28;20027;-57
2022/11/16 13:02:51;;;;;;;5.40;1.90;;;;;;;;;;5051301;28;20063;-57
2022/11/16 13:05:19;;;;;;;20.60;8.27;;;;;;;;;;5050932;28;20060;-57
2022/11/16 13:07:46;;;;;;;8.93;2.78;;;;;;;;;;5055127;28;20285;-57
2022/11/16 13:10:32;;;;;;;7.95;2.20;;;;;;;;;;5069171;28;20465;-57
2022/11/16 13:13:02;;;;;;;8.75;1.90;;;;;;;;;;5082234;28;20513;-56
2022/11/16 13:15:31;;;;;;;7.07;1.95;;;;;;;;;;5077217;28;20020;-56
2022/11/16 13:17:57;;;;;;;12.52;2.90;;;;;;;;;;5111114;27;20089;-56
2022/11/16 13:20:38;;;;;;;9.60;2.10;;;;;;;;;;5115299;27;20654;-56
2022/11/16 13:23:04;;;;;;;8.10;2.58;;;;;;;;;;5091366;28;20353;-56
2022/11/16 13:25:29;;;;;;;8.00;2.40;;;;;;;;;;5077905;28;20285;-56
2022/11/16 13:28:03;;;;;;;5.90;1.75;;;;;;;;;;5084384;28;20028;-56
2022/11/16 13:30:34;;;;;;;7.60;1.60;;;;;;;;;;5076482;28;20024;-58
2022/11/16 13:33:06;;;;;;;6.30;1.40;;;;;;;;;;5081399;28;20077;-56
2022/11/16 13:35:31;;;;;;;4.20;1.30;;;;;;;;;;5085463;28;20498;-56
2022/11/16 13:37:56;;;;;;;6.10;1.60;;;;;;;;;;5113027;27;20024;-56
2022/11/16 13:40:26;;;;;;;7.07;1.83;;;;;;;;;;5078197;28;20008;-59
2022/11/16 13:43:03;;;;;;;5.00;1.70;;;;;;;;;;5084360;28;20032;-56
2022/11/16 13:45:42;;;;;;;2.95;1.17;;;;;;;;;;5073993;28;20541;-56
2022/11/16 13:48:15;;;;;;;6.85;1.67;;;;;;;;;;5078666;28;20466;-56
2022/11/16 13:50:40;;;;;;;4.55;1.73;;;;;;;;;;5116056;27;20031;-56
2022/11/16 13:53:26;;;;;;;5.45;1.40;;;;;;;;;;5083321;28;20279;-56
2022/11/16 13:55:55;;;;;;;6.53;1.60;;;;;;;;;;5073419;28;20028;-56
2022/11/16 13:58:20;;;;;;;7.35;1.90;;;;;;;;;;5110987;27;20558;-58
2022/11/16 14:00:56;;;;;;;5.90;1.75;;;;;;;;;;5082058;28;20115;-56
2022/11/16 14:03:21;;;;;;;5.63;1.80;;;;;;;;;;5073625;28;20016;-58
2022/11/16 14:05:47;;;;;;;6.10;1.60;;;;;;;;;;5086296;28;20530;-58
2022/11/16 14:08:19;;;;;;;5.72;1.95;;;;;;;;;;5094098;28;20473;-58
2022/11/16 14:10:47;;;;;;;7.22;1.92;;;;;;;;;;5077330;28;20020;-58
2022/11/16 14:13:33;;;;;;;6.57;2.15;;;;;;;;;;5088693;28;20013;-57
2022/11/16 14:16:20;;;;;;;4.45;1.60;;;;;;;;;;5079916;28;20024;-58
2022/11/16 14:18:46;;;;;;;8.30;2.25;;;;;;;;;;5076617;28;20066;-58
2022/11/16 14:21:18;;;;;;;9.02;2.05;;;;;;;;;;5071974;28;20024;-58
2022/11/16 14:23:46;;;;;;;7.18;2.67;;;;;;;;;;5074690;28;20076;-58
2022/11/16 14:26:15;;;;;;;5.65;2.15;;;;;;;;;;5071520;28;20032;-58
2022/11/16 14:28:57;;;;;;;9.85;2.33;;;;;;;;;;5086105;28;20023;-58
2022/11/16 14:31:29;;;;;;;9.30;3.80;;;;;;;;;;5076017;28;20381;-58
2022/11/16 14:33:55;;;;;;;9.27;3.67;;;;;;;;;;5088192;28;20387;-58
2022/11/16 14:36:40;;;;;;;6.65;1.92;;;;;;;;;;5079700;28;20035;-58
2022/11/16 14:39:15;;;;;;;6.25;1.70;;;;;;;;;;5075863;28;20036;-58
2022/11/16 14:41:42;;;;;;;10.48;2.05;;;;;;;;;;5077597;28;20020;-58
2022/11/16 14:44:07;;;;;;;6.00;1.92;;;;;;;;;;5078987;28;20067;-58
2022/11/16 14:46:33;;;;;;;10.75;2.80;;;;;;;;;;5077081;28;20459;-58
2022/11/16 14:49:02;;;;;;;7.40;2.30;;;;;;;;;;5083971;28;20485;-58
2022/11/16 14:51:31;;;;;;;5.90;1.83;;;;;;;;;;5085553;28;20492;-58
2022/11/16 14:54:04;;;;;;;8.98;2.40;;;;;;;;;;5080160;27;20029;-58
2022/11/16 14:56:29;;;;;;;8.50;2.20;;;;;;;;;;5093467;28;20447;-58
2022/11/16 14:58:58;;;;;;;6.25;1.70;;;;;;;;;;5088273;28;20417;-58
2022/11/16 15:01:27;;;;;;;7.18;2.05;;;;;;;;;;5081920;28;20035;-58
2022/11/16 15:03:53;;;;;;;8.10;2.05;;;;;;;;;;5076584;28;20107;-59
2022/11/16 15:06:18;;;;;;;6.50;2.03;;;;;;;;;;5076923;28;20574;-58
2022/11/16 15:08:44;;;;;;;8.13;2.10;;;;;;;;;;5082348;28;20016;-58
2022/11/16 15:11:18;;;;;;;7.05;2.28;;;;;;;;;;5076586;28;20367;-58
2022/11/16 15:13:44;;;;;;;6.90;2.47;;;;;;;;;;5074675;28;20029;-58
2022/11/16 15:16:10;;;;;;;6.25;1.92;;;;;;;;;;5077523;28;20037;-59
2022/11/16 15:18:35;;;;;;;6.10;1.80;;;;;;;;;;5077886;28;20232;-58
2022/11/16 15:21:00;;;;;;;5.05;2.47;;;;;;;;;;5079260;28;20039;-58
2022/11/16 15:23:25;;;;;;;7.32;2.05;;;;;;;;;;5086060;28;20028;-58
2022/11/16 15:25:51;;;;;;;9.35;2.22;;;;;;;;;;5092144;28;20455;-58
2022/11/16 15:28:18;;;;;;;8.43;2.83;;;;;;;;;;5078325;28;20052;-59